sensor_id;sensor_type;location;lat;lon;timestamp;P1;durP1;ratioP1;P2;durP2;ratioP2
29500;SDS011;16450;50.288;10.966;2024-02-23T00:00:48;2.73;;;0.83;;
29500;SDS011;16450;50.288;10.966;2024-02-23T00:03:50;1.70;;;0.83;;
29500;SDS011;16450;50.288;10.966;2024-02-23T00:06:52;2.63;;;0.90;;
29500;SDS011;16450;50.288;10.966;2024-02-23T00:09:55;1.80;;;1.00;;
29500;SDS011;16450;50.288;10.966;2024-02-23T00:12:56;2.17;;;0.90;;
29500;SDS011;16450;50.288;10.966;2024-02-23T00:15:58;2.30;;;0.90;;
29500;SDS011;16450;50.288;10.966;2024-02-23T00:19:00;1.10;;;0.90;;
29500;SDS011;16450;50.288;10.966;2024-02-23T00:22:02;1.23;;;0.77;;
29500;SDS011;16450;50.288;10.966;2024-02-23T00:25:08;1.33;;;0.90;;
29500;SDS011;16450;50.288;10.966;2024-02-23T00:28:10;2.33;;;0.83;;
29500;SDS011;16450;50.288;10.966;2024-02-23T00:31:12;0.67;;;0.60;;
29500;SDS011;16450;50.288;10.966;2024-02-23T00:34:14;2.40;;;0.53;;
29500;SDS011;16450;50.288;10.966;2024-02-23T00:37:16;2.33;;;0.77;;
29500;SDS011;16450;50.288;10.966;2024-02-23T00:40:18;1.23;;;0.60;;
29500;SDS011;16450;50.288;10.966;2024-02-23T00:43:20;1.20;;;0.67;;
29500;SDS011;16450;50.288;10.966;2024-02-23T00:46:21;1.37;;;0.50;;
29500;SDS011;16450;50.288;10.966;2024-02-23T00:49:23;1.30;;;0.80;;
29500;SDS011;16450;50.288;10.966;2024-02-23T00:52:25;0.50;;;0.43;;
29500;SDS011;16450;50.288;10.966;2024-02-23T00:55:27;2.30;;;0.60;;
29500;SDS011;16450;50.288;10.966;2024-02-23T00:58:29;1.90;;;0.70;;
29500;SDS011;16450;50.288;10.966;2024-02-23T01:01:30;0.57;;;0.50;;
29500;SDS011;16450;50.288;10.966;2024-02-23T01:04:33;1.00;;;0.53;;
29500;SDS011;16450;50.288;10.966;2024-02-23T01:07:35;1.43;;;0.50;;
29500;SDS011;16450;50.288;10.966;2024-02-23T01:10:37;2.30;;;0.60;;
29500;SDS011;16450;50.288;10.966;2024-02-23T01:13:38;1.77;;;0.70;;
29500;SDS011;16450;50.288;10.966;2024-02-23T01:16:40;0.43;;;0.43;;
29500;SDS011;16450;50.288;10.966;2024-02-23T01:19:42;0.97;;;0.50;;
29500;SDS011;16450;50.288;10.966;2024-02-23T01:22:45;2.13;;;0.70;;
29500;SDS011;16450;50.288;10.966;2024-02-23T01:25:47;1.60;;;0.77;;
29500;SDS011;16450;50.288;10.966;2024-02-23T01:28:50;1.60;;;0.60;;
29500;SDS011;16450;50.288;10.966;2024-02-23T01:31:51;1.27;;;0.60;;
29500;SDS011;16450;50.288;10.966;2024-02-23T01:34:55;0.70;;;0.60;;
29500;SDS011;16450;50.288;10.966;2024-02-23T01:37:57;2.73;;;0.90;;
29500;SDS011;16450;50.288;10.966;2024-02-23T01:40:59;1.23;;;0.60;;
29500;SDS011;16450;50.288;10.966;2024-02-23T01:44:01;2.10;;;0.70;;
29500;SDS011;16450;50.288;10.966;2024-02-23T01:47:04;1.03;;;0.60;;
29500;SDS011;16450;50.288;10.966;2024-02-23T01:50:06;1.47;;;0.63;;
29500;SDS011;16450;50.288;10.966;2024-02-23T01:53:10;3.13;;;0.80;;
29500;SDS011;16450;50.288;10.966;2024-02-23T01:56:13;1.30;;;0.70;;
29500;SDS011;16450;50.288;10.966;2024-02-23T01:59:20;2.40;;;0.70;;
29500;SDS011;16450;50.288;10.966;2024-02-23T02:02:22;2.23;;;0.60;;
29500;SDS011;16450;50.288;10.966;2024-02-23T02:05:24;0.50;;;0.50;;
29500;SDS011;16450;50.288;10.966;2024-02-23T02:08:26;1.23;;;0.70;;
29500;SDS011;16450;50.288;10.966;2024-02-23T02:11:28;1.47;;;0.77;;
29500;SDS011;16450;50.288;10.966;2024-02-23T02:14:30;1.37;;;0.60;;
29500;SDS011;16450;50.288;10.966;2024-02-23T02:17:34;0.80;;;0.60;;
29500;SDS011;16450;50.288;10.966;2024-02-23T02:20:38;1.40;;;0.80;;
29500;SDS011;16450;50.288;10.966;2024-02-23T02:23:51;2.60;;;0.80;;
29500;SDS011;16450;50.288;10.966;2024-02-23T02:26:53;2.53;;;0.60;;
29500;SDS011;16450;50.288;10.966;2024-02-23T02:29:55;1.77;;;0.90;;
29500;SDS011;16450;50.288;10.966;2024-02-23T02:32:57;1.43;;;0.70;;
29500;SDS011;16450;50.288;10.966;2024-02-23T02:35:59;2.83;;;0.73;;
29500;SDS011;16450;50.288;10.966;2024-02-23T02:39:01;2.60;;;0.70;;
29500;SDS011;16450;50.288;10.966;2024-02-23T02:42:03;2.83;;;0.70;;
29500;SDS011;16450;50.288;10.966;2024-02-23T02:45:05;1.13;;;0.50;;
29500;SDS011;16450;50.288;10.966;2024-02-23T02:48:08;3.03;;;0.60;;
29500;SDS011;16450;50.288;10.966;2024-02-23T02:51:10;1.27;;;0.50;;
29500;SDS011;16450;50.288;10.966;2024-02-23T02:54:11;3.43;;;0.80;;
29500;SDS011;16450;50.288;10.966;2024-02-23T02:57:14;0.50;;;0.50;;
29500;SDS011;16450;50.288;10.966;2024-02-23T03:00:16;4.80;;;0.80;;
29500;SDS011;16450;50.288;10.966;2024-02-23T03:03:17;0.60;;;0.50;;
29500;SDS011;16450;50.288;10.966;2024-02-23T03:06:19;1.77;;;0.90;;
29500;SDS011;16450;50.288;10.966;2024-02-23T03:09:21;2.40;;;0.77;;
29500;SDS011;16450;50.288;10.966;2024-02-23T03:12:23;5.57;;;0.83;;
29500;SDS011;16450;50.288;10.966;2024-02-23T03:15:25;2.47;;;0.57;;
29500;SDS011;16450;50.288;10.966;2024-02-23T03:18:27;1.33;;;0.90;;
29500;SDS011;16450;50.288;10.966;2024-02-23T03:21:30;2.90;;;0.83;;
29500;SDS011;16450;50.288;10.966;2024-02-23T03:24:31;2.30;;;0.87;;
29500;SDS011;16450;50.288;10.966;2024-02-23T03:27:34;2.30;;;0.60;;
29500;SDS011;16450;50.288;10.966;2024-02-23T03:30:39;1.50;;;0.53;;
29500;SDS011;16450;50.288;10.966;2024-02-23T03:33:41;2.73;;;0.77;;
29500;SDS011;16450;50.288;10.966;2024-02-23T03:36:43;3.93;;;0.70;;
29500;SDS011;16450;50.288;10.966;2024-02-23T03:39:45;3.60;;;0.73;;
29500;SDS011;16450;50.288;10.966;2024-02-23T03:42:49;1.00;;;0.50;;
29500;SDS011;16450;50.288;10.966;2024-02-23T03:45:51;0.73;;;0.50;;
29500;SDS011;16450;50.288;10.966;2024-02-23T03:48:53;3.90;;;0.73;;
29500;SDS011;16450;50.288;10.966;2024-02-23T03:51:55;3.60;;;0.67;;
29500;SDS011;16450;50.288;10.966;2024-02-23T03:54:57;1.10;;;0.60;;
29500;SDS011;16450;50.288;10.966;2024-02-23T03:57:58;4.17;;;1.03;;
29500;SDS011;16450;50.288;10.966;2024-02-23T04:01:00;2.50;;;0.80;;
29500;SDS011;16450;50.288;10.966;2024-02-23T04:04:03;3.30;;;0.77;;
29500;SDS011;16450;50.288;10.966;2024-02-23T04:07:05;2.17;;;0.70;;
29500;SDS011;16450;50.288;10.966;2024-02-23T04:10:07;0.77;;;0.60;;
29500;SDS011;16450;50.288;10.966;2024-02-23T04:13:10;2.93;;;0.50;;
29500;SDS011;16450;50.288;10.966;2024-02-23T04:16:15;2.80;;;0.70;;
29500;SDS011;16450;50.288;10.966;2024-02-23T04:19:16;2.43;;;0.50;;
29500;SDS011;16450;50.288;10.966;2024-02-23T04:22:18;3.27;;;0.63;;
29500;SDS011;16450;50.288;10.966;2024-02-23T04:25:20;1.37;;;0.50;;
29500;SDS011;16450;50.288;10.966;2024-02-23T04:28:22;2.87;;;0.60;;
29500;SDS011;16450;50.288;10.966;2024-02-23T04:31:24;6.40;;;0.80;;
29500;SDS011;16450;50.288;10.966;2024-02-23T04:34:26;3.37;;;0.80;;
29500;SDS011;16450;50.288;10.966;2024-02-23T04:37:28;3.90;;;0.70;;
29500;SDS011;16450;50.288;10.966;2024-02-23T04:40:33;4.03;;;0.87;;
29500;SDS011;16450;50.288;10.966;2024-02-23T04:43:35;4.23;;;0.60;;
29500;SDS011;16450;50.288;10.966;2024-02-23T04:46:37;1.13;;;0.60;;
29500;SDS011;16450;50.288;10.966;2024-02-23T04:49:39;2.47;;;0.80;;
29500;SDS011;16450;50.288;10.966;2024-02-23T04:52:41;1.87;;;0.70;;
29500;SDS011;16450;50.288;10.966;2024-02-23T04:55:43;3.73;;;0.60;;
29500;SDS011;16450;50.288;10.966;2024-02-23T04:58:45;1.20;;;0.50;;
29500;SDS011;16450;50.288;10.966;2024-02-23T05:01:48;3.83;;;0.70;;
29500;SDS011;16450;50.288;10.966;2024-02-23T05:04:51;3.80;;;0.70;;
29500;SDS011;16450;50.288;10.966;2024-02-23T05:07:52;2.50;;;0.60;;
29500;SDS011;16450;50.288;10.966;2024-02-23T05:10:54;3.60;;;0.70;;
29500;SDS011;16450;50.288;10.966;2024-02-23T05:13:56;2.77;;;0.73;;
29500;SDS011;16450;50.288;10.966;2024-02-23T05:16:58;3.37;;;0.47;;
29500;SDS011;16450;50.288;10.966;2024-02-23T05:20:00;3.17;;;0.50;;
29500;SDS011;16450;50.288;10.966;2024-02-23T05:23:02;3.43;;;0.60;;
29500;SDS011;16450;50.288;10.966;2024-02-23T05:26:04;4.13;;;0.90;;
29500;SDS011;16450;50.288;10.966;2024-02-23T05:29:08;1.83;;;0.60;;
29500;SDS011;16450;50.288;10.966;2024-02-23T05:32:10;3.93;;;0.80;;
29500;SDS011;16450;50.288;10.966;2024-02-23T05:35:12;2.17;;;0.50;;
29500;SDS011;16450;50.288;10.966;2024-02-23T05:38:15;4.00;;;0.90;;
29500;SDS011;16450;50.288;10.966;2024-02-23T05:41:18;3.20;;;0.60;;
29500;SDS011;16450;50.288;10.966;2024-02-23T05:44:19;1.43;;;0.60;;
29500;SDS011;16450;50.288;10.966;2024-02-23T05:47:21;3.00;;;0.60;;
29500;SDS011;16450;50.288;10.966;2024-02-23T05:50:23;1.23;;;0.70;;
29500;SDS011;16450;50.288;10.966;2024-02-23T05:53:25;2.33;;;0.80;;
29500;SDS011;16450;50.288;10.966;2024-02-23T05:56:27;1.53;;;0.70;;
29500;SDS011;16450;50.288;10.966;2024-02-23T05:59:29;4.40;;;0.57;;
29500;SDS011;16450;50.288;10.966;2024-02-23T06:02:31;3.33;;;0.70;;
29500;SDS011;16450;50.288;10.966;2024-02-23T06:05:33;5.00;;;1.10;;
29500;SDS011;16450;50.288;10.966;2024-02-23T06:08:35;2.30;;;0.60;;
29500;SDS011;16450;50.288;10.966;2024-02-23T06:11:38;5.53;;;0.70;;
29500;SDS011;16450;50.288;10.966;2024-02-23T06:14:40;2.37;;;0.50;;
29500;SDS011;16450;50.288;10.966;2024-02-23T06:17:42;2.43;;;0.60;;
29500;SDS011;16450;50.288;10.966;2024-02-23T06:20:44;0.87;;;0.43;;
29500;SDS011;16450;50.288;10.966;2024-02-23T06:23:46;1.20;;;0.57;;
29500;SDS011;16450;50.288;10.966;2024-02-23T06:26:48;2.27;;;0.50;;
29500;SDS011;16450;50.288;10.966;2024-02-23T06:29:50;1.90;;;0.60;;
29500;SDS011;16450;50.288;10.966;2024-02-23T06:32:52;5.70;;;0.77;;
29500;SDS011;16450;50.288;10.966;2024-02-23T06:35:54;1.67;;;0.70;;
29500;SDS011;16450;50.288;10.966;2024-02-23T06:38:56;3.70;;;0.60;;
29500;SDS011;16450;50.288;10.966;2024-02-23T06:41:58;1.60;;;0.60;;
29500;SDS011;16450;50.288;10.966;2024-02-23T06:45:02;2.57;;;0.60;;
29500;SDS011;16450;50.288;10.966;2024-02-23T06:48:04;2.13;;;0.77;;
29500;SDS011;16450;50.288;10.966;2024-02-23T06:51:06;1.63;;;0.67;;
29500;SDS011;16450;50.288;10.966;2024-02-23T06:54:11;6.40;;;0.80;;
29500;SDS011;16450;50.288;10.966;2024-02-23T06:57:13;3.93;;;0.80;;
29500;SDS011;16450;50.288;10.966;2024-02-23T07:00:15;3.93;;;0.90;;
29500;SDS011;16450;50.288;10.966;2024-02-23T07:03:17;3.50;;;0.63;;
29500;SDS011;16450;50.288;10.966;2024-02-23T07:06:19;4.43;;;1.00;;
29500;SDS011;16450;50.288;10.966;2024-02-23T07:09:21;6.37;;;0.90;;
29500;SDS011;16450;50.288;10.966;2024-02-23T07:12:23;4.73;;;0.73;;
29500;SDS011;16450;50.288;10.966;2024-02-23T07:15:26;4.00;;;0.80;;
29500;SDS011;16450;50.288;10.966;2024-02-23T07:18:28;5.13;;;0.80;;
29500;SDS011;16450;50.288;10.966;2024-02-23T07:21:30;1.87;;;0.80;;
29500;SDS011;16450;50.288;10.966;2024-02-23T07:24:32;4.27;;;1.20;;
29500;SDS011;16450;50.288;10.966;2024-02-23T07:27:34;3.37;;;0.90;;
29500;SDS011;16450;50.288;10.966;2024-02-23T07:30:36;3.07;;;0.93;;
29500;SDS011;16450;50.288;10.966;2024-02-23T07:33:38;4.17;;;1.07;;
29500;SDS011;16450;50.288;10.966;2024-02-23T07:36:40;2.47;;;1.00;;
29500;SDS011;16450;50.288;10.966;2024-02-23T07:39:42;7.07;;;1.57;;
29500;SDS011;16450;50.288;10.966;2024-02-23T07:42:43;6.93;;;1.60;;
29500;SDS011;16450;50.288;10.966;2024-02-23T07:45:45;2.27;;;1.37;;
29500;SDS011;16450;50.288;10.966;2024-02-23T07:48:47;4.83;;;1.90;;
29500;SDS011;16450;50.288;10.966;2024-02-23T07:51:49;4.97;;;1.37;;
29500;SDS011;16450;50.288;10.966;2024-02-23T07:54:52;7.10;;;1.60;;
29500;SDS011;16450;50.288;10.966;2024-02-23T07:57:54;7.17;;;1.43;;
29500;SDS011;16450;50.288;10.966;2024-02-23T08:01:02;3.53;;;1.30;;
29500;SDS011;16450;50.288;10.966;2024-02-23T08:04:04;3.97;;;1.70;;
29500;SDS011;16450;50.288;10.966;2024-02-23T08:07:06;1.83;;;1.00;;
29500;SDS011;16450;50.288;10.966;2024-02-23T08:10:08;4.67;;;1.20;;
29500;SDS011;16450;50.288;10.966;2024-02-23T08:13:12;3.13;;;1.00;;
29500;SDS011;16450;50.288;10.966;2024-02-23T08:16:15;2.87;;;1.20;;
29500;SDS011;16450;50.288;10.966;2024-02-23T08:19:18;4.57;;;1.23;;
29500;SDS011;16450;50.288;10.966;2024-02-23T08:22:20;3.63;;;1.00;;
29500;SDS011;16450;50.288;10.966;2024-02-23T08:25:22;3.20;;;1.10;;
29500;SDS011;16450;50.288;10.966;2024-02-23T08:28:24;5.43;;;1.20;;
29500;SDS011;16450;50.288;10.966;2024-02-23T08:31:26;2.37;;;0.83;;
29500;SDS011;16450;50.288;10.966;2024-02-23T08:34:28;6.67;;;1.00;;
29500;SDS011;16450;50.288;10.966;2024-02-23T08:37:30;2.80;;;1.20;;
29500;SDS011;16450;50.288;10.966;2024-02-23T08:40:32;5.20;;;1.17;;
29500;SDS011;16450;50.288;10.966;2024-02-23T08:43:34;4.90;;;1.57;;
29500;SDS011;16450;50.288;10.966;2024-02-23T08:46:36;6.50;;;1.30;;
29500;SDS011;16450;50.288;10.966;2024-02-23T08:49:40;6.57;;;1.40;;
29500;SDS011;16450;50.288;10.966;2024-02-23T08:52:42;3.47;;;0.90;;
29500;SDS011;16450;50.288;10.966;2024-02-23T08:55:44;1.90;;;1.17;;
29500;SDS011;16450;50.288;10.966;2024-02-23T08:58:46;4.60;;;0.93;;
29500;SDS011;16450;50.288;10.966;2024-02-23T09:01:48;3.60;;;1.43;;
29500;SDS011;16450;50.288;10.966;2024-02-23T09:04:50;3.53;;;1.30;;
29500;SDS011;16450;50.288;10.966;2024-02-23T09:07:52;3.93;;;1.00;;
29500;SDS011;16450;50.288;10.966;2024-02-23T09:10:55;2.40;;;1.00;;
29500;SDS011;16450;50.288;10.966;2024-02-23T09:13:57;3.47;;;1.10;;
29500;SDS011;16450;50.288;10.966;2024-02-23T09:16:59;3.83;;;0.90;;
29500;SDS011;16450;50.288;10.966;2024-02-23T09:20:01;3.93;;;0.97;;
29500;SDS011;16450;50.288;10.966;2024-02-23T09:23:03;3.03;;;1.00;;
29500;SDS011;16450;50.288;10.966;2024-02-23T09:26:11;5.90;;;0.80;;
29500;SDS011;16450;50.288;10.966;2024-02-23T09:29:13;3.47;;;1.10;;
29500;SDS011;16450;50.288;10.966;2024-02-23T09:32:15;2.97;;;1.10;;
29500;SDS011;16450;50.288;10.966;2024-02-23T09:35:17;2.57;;;0.83;;
29500;SDS011;16450;50.288;10.966;2024-02-23T09:38:19;5.07;;;1.03;;
29500;SDS011;16450;50.288;10.966;2024-02-23T09:41:22;3.67;;;1.17;;
29500;SDS011;16450;50.288;10.966;2024-02-23T09:44:26;5.07;;;1.60;;
29500;SDS011;16450;50.288;10.966;2024-02-23T09:47:37;4.93;;;1.60;;
29500;SDS011;16450;50.288;10.966;2024-02-23T09:50:40;5.70;;;1.10;;
29500;SDS011;16450;50.288;10.966;2024-02-23T09:53:43;1.97;;;1.00;;
29500;SDS011;16450;50.288;10.966;2024-02-23T09:56:45;3.00;;;1.07;;
29500;SDS011;16450;50.288;10.966;2024-02-23T09:59:48;3.00;;;1.00;;
29500;SDS011;16450;50.288;10.966;2024-02-23T10:02:51;1.70;;;0.90;;
29500;SDS011;16450;50.288;10.966;2024-02-23T10:05:54;2.70;;;1.03;;
29500;SDS011;16450;50.288;10.966;2024-02-23T10:08:57;3.37;;;0.97;;
29500;SDS011;16450;50.288;10.966;2024-02-23T10:11:59;3.27;;;1.13;;
29500;SDS011;16450;50.288;10.966;2024-02-23T10:15:02;4.33;;;1.10;;
29500;SDS011;16450;50.288;10.966;2024-02-23T10:18:05;2.70;;;0.93;;
29500;SDS011;16450;50.288;10.966;2024-02-23T10:21:07;2.70;;;0.90;;
29500;SDS011;16450;50.288;10.966;2024-02-23T10:24:10;3.07;;;1.20;;
29500;SDS011;16450;50.288;10.966;2024-02-23T10:27:12;4.80;;;1.53;;
29500;SDS011;16450;50.288;10.966;2024-02-23T10:30:14;4.53;;;1.10;;
29500;SDS011;16450;50.288;10.966;2024-02-23T10:33:22;3.00;;;0.93;;
29500;SDS011;16450;50.288;10.966;2024-02-23T10:36:28;2.83;;;1.00;;
29500;SDS011;16450;50.288;10.966;2024-02-23T10:39:36;3.23;;;1.13;;
29500;SDS011;16450;50.288;10.966;2024-02-23T10:42:38;2.50;;;0.97;;
29500;SDS011;16450;50.288;10.966;2024-02-23T10:45:42;3.87;;;1.13;;
29500;SDS011;16450;50.288;10.966;2024-02-23T10:48:46;6.97;;;0.93;;
29500;SDS011;16450;50.288;10.966;2024-02-23T10:51:51;3.60;;;1.10;;
29500;SDS011;16450;50.288;10.966;2024-02-23T10:54:53;3.77;;;1.07;;
29500;SDS011;16450;50.288;10.966;2024-02-23T10:57:56;5.73;;;0.70;;
29500;SDS011;16450;50.288;10.966;2024-02-23T11:01:00;3.93;;;1.20;;
29500;SDS011;16450;50.288;10.966;2024-02-23T11:04:04;5.23;;;1.20;;
29500;SDS011;16450;50.288;10.966;2024-02-23T11:07:12;4.17;;;0.97;;
29500;SDS011;16450;50.288;10.966;2024-02-23T11:10:15;4.43;;;1.10;;
29500;SDS011;16450;50.288;10.966;2024-02-23T11:13:17;7.73;;;1.20;;
29500;SDS011;16450;50.288;10.966;2024-02-23T11:16:22;6.03;;;1.10;;
29500;SDS011;16450;50.288;10.966;2024-02-23T11:19:37;3.33;;;1.00;;
29500;SDS011;16450;50.288;10.966;2024-02-23T11:22:40;3.40;;;0.93;;
29500;SDS011;16450;50.288;10.966;2024-02-23T11:25:42;2.73;;;0.90;;
29500;SDS011;16450;50.288;10.966;2024-02-23T11:31:54;5.33;;;1.37;;
29500;SDS011;16450;50.288;10.966;2024-02-23T11:35:01;5.73;;;2.13;;
29500;SDS011;16450;50.288;10.966;2024-02-23T11:38:04;3.97;;;1.20;;
29500;SDS011;16450;50.288;10.966;2024-02-23T11:41:08;4.27;;;2.07;;
29500;SDS011;16450;50.288;10.966;2024-02-23T11:44:11;3.57;;;1.17;;
29500;SDS011;16450;50.288;10.966;2024-02-23T11:47:14;3.97;;;1.30;;
29500;SDS011;16450;50.288;10.966;2024-02-23T11:50:18;2.27;;;1.10;;
29500;SDS011;16450;50.288;10.966;2024-02-23T11:53:23;3.47;;;1.07;;
29500;SDS011;16450;50.288;10.966;2024-02-23T11:56:26;1.93;;;1.07;;
29500;SDS011;16450;50.288;10.966;2024-02-23T11:59:29;3.97;;;1.57;;
29500;SDS011;16450;50.288;10.966;2024-02-23T12:02:31;4.13;;;1.53;;
29500;SDS011;16450;50.288;10.966;2024-02-23T12:05:37;2.73;;;0.90;;
29500;SDS011;16450;50.288;10.966;2024-02-23T12:08:38;6.90;;;1.00;;
29500;SDS011;16450;50.288;10.966;2024-02-23T12:11:41;5.20;;;1.00;;
29500;SDS011;16450;50.288;10.966;2024-02-23T12:14:44;6.03;;;1.60;;
29500;SDS011;16450;50.288;10.966;2024-02-23T12:17:49;3.13;;;1.17;;
29500;SDS011;16450;50.288;10.966;2024-02-23T12:20:52;5.97;;;1.70;;
29500;SDS011;16450;50.288;10.966;2024-02-23T12:23:55;6.80;;;1.47;;
29500;SDS011;16450;50.288;10.966;2024-02-23T12:26:57;3.77;;;1.07;;
29500;SDS011;16450;50.288;10.966;2024-02-23T12:29:59;3.70;;;1.03;;
29500;SDS011;16450;50.288;10.966;2024-02-23T12:33:05;3.73;;;1.13;;
29500;SDS011;16450;50.288;10.966;2024-02-23T12:36:12;3.37;;;0.87;;
29500;SDS011;16450;50.288;10.966;2024-02-23T12:39:14;4.33;;;1.17;;
29500;SDS011;16450;50.288;10.966;2024-02-23T12:42:16;3.77;;;1.10;;
29500;SDS011;16450;50.288;10.966;2024-02-23T12:45:19;5.67;;;0.80;;
29500;SDS011;16450;50.288;10.966;2024-02-23T12:48:21;4.10;;;0.83;;
29500;SDS011;16450;50.288;10.966;2024-02-23T12:51:24;1.37;;;0.80;;
29500;SDS011;16450;50.288;10.966;2024-02-23T12:54:28;5.40;;;1.00;;
29500;SDS011;16450;50.288;10.966;2024-02-23T12:57:30;7.70;;;1.13;;
29500;SDS011;16450;50.288;10.966;2024-02-23T13:00:32;5.40;;;0.90;;
29500;SDS011;16450;50.288;10.966;2024-02-23T13:03:34;2.87;;;1.00;;
29500;SDS011;16450;50.288;10.966;2024-02-23T13:06:37;5.10;;;0.70;;
29500;SDS011;16450;50.288;10.966;2024-02-23T13:09:40;4.03;;;1.10;;
29500;SDS011;16450;50.288;10.966;2024-02-23T13:12:42;4.20;;;1.10;;
29500;SDS011;16450;50.288;10.966;2024-02-23T13:15:44;6.87;;;1.60;;
29500;SDS011;16450;50.288;10.966;2024-02-23T13:18:47;7.03;;;1.53;;
29500;SDS011;16450;50.288;10.966;2024-02-23T13:21:49;5.23;;;1.70;;
29500;SDS011;16450;50.288;10.966;2024-02-23T13:24:51;7.33;;;2.10;;
29500;SDS011;16450;50.288;10.966;2024-02-23T13:27:53;5.77;;;1.23;;
29500;SDS011;16450;50.288;10.966;2024-02-23T13:30:55;4.40;;;1.00;;
29500;SDS011;16450;50.288;10.966;2024-02-23T13:33:56;4.97;;;0.90;;
29500;SDS011;16450;50.288;10.966;2024-02-23T13:36:58;5.30;;;1.10;;
29500;SDS011;16450;50.288;10.966;2024-02-23T13:40:00;5.10;;;1.10;;
29500;SDS011;16450;50.288;10.966;2024-02-23T13:43:03;7.97;;;1.80;;
29500;SDS011;16450;50.288;10.966;2024-02-23T13:46:05;3.97;;;1.10;;
29500;SDS011;16450;50.288;10.966;2024-02-23T13:49:07;4.57;;;1.20;;
29500;SDS011;16450;50.288;10.966;2024-02-23T13:52:11;4.23;;;1.20;;
29500;SDS011;16450;50.288;10.966;2024-02-23T13:55:13;6.33;;;1.40;;
29500;SDS011;16450;50.288;10.966;2024-02-23T13:58:15;2.50;;;1.00;;
29500;SDS011;16450;50.288;10.966;2024-02-23T14:01:18;5.30;;;1.30;;
29500;SDS011;16450;50.288;10.966;2024-02-23T14:04:20;2.80;;;0.90;;
29500;SDS011;16450;50.288;10.966;2024-02-23T14:07:22;3.40;;;0.83;;
29500;SDS011;16450;50.288;10.966;2024-02-23T14:10:24;2.20;;;0.87;;
29500;SDS011;16450;50.288;10.966;2024-02-23T14:13:26;3.70;;;0.87;;
29500;SDS011;16450;50.288;10.966;2024-02-23T14:16:28;4.87;;;1.23;;
29500;SDS011;16450;50.288;10.966;2024-02-23T14:19:30;5.13;;;1.40;;
29500;SDS011;16450;50.288;10.966;2024-02-23T14:22:32;7.00;;;1.20;;
29500;SDS011;16450;50.288;10.966;2024-02-23T14:25:34;3.37;;;1.03;;
29500;SDS011;16450;50.288;10.966;2024-02-23T14:28:36;4.23;;;1.13;;
29500;SDS011;16450;50.288;10.966;2024-02-23T14:31:38;5.00;;;1.10;;
29500;SDS011;16450;50.288;10.966;2024-02-23T14:34:39;3.30;;;0.80;;
29500;SDS011;16450;50.288;10.966;2024-02-23T14:37:41;1.47;;;0.67;;
29500;SDS011;16450;50.288;10.966;2024-02-23T14:40:43;6.20;;;1.57;;
29500;SDS011;16450;50.288;10.966;2024-02-23T14:43:45;2.53;;;1.00;;
29500;SDS011;16450;50.288;10.966;2024-02-23T14:46:47;3.47;;;1.20;;
29500;SDS011;16450;50.288;10.966;2024-02-23T14:49:48;3.97;;;0.90;;
29500;SDS011;16450;50.288;10.966;2024-02-23T14:52:51;6.70;;;1.20;;
29500;SDS011;16450;50.288;10.966;2024-02-23T14:55:53;1.97;;;0.90;;
29500;SDS011;16450;50.288;10.966;2024-02-23T14:58:54;2.73;;;1.10;;
29500;SDS011;16450;50.288;10.966;2024-02-23T15:01:56;4.17;;;1.20;;
29500;SDS011;16450;50.288;10.966;2024-02-23T15:04:59;2.40;;;0.87;;
29500;SDS011;16450;50.288;10.966;2024-02-23T15:08:01;7.63;;;1.20;;
29500;SDS011;16450;50.288;10.966;2024-02-23T15:11:03;3.27;;;1.63;;
29500;SDS011;16450;50.288;10.966;2024-02-23T15:14:06;3.33;;;1.27;;
29500;SDS011;16450;50.288;10.966;2024-02-23T15:17:08;2.20;;;1.00;;
29500;SDS011;16450;50.288;10.966;2024-02-23T15:20:10;3.60;;;1.30;;
29500;SDS011;16450;50.288;10.966;2024-02-23T15:23:13;2.23;;;1.00;;
29500;SDS011;16450;50.288;10.966;2024-02-23T15:26:15;4.50;;;1.30;;
29500;SDS011;16450;50.288;10.966;2024-02-23T15:29:17;3.27;;;1.80;;
29500;SDS011;16450;50.288;10.966;2024-02-23T15:32:20;4.43;;;1.60;;
29500;SDS011;16450;50.288;10.966;2024-02-23T15:35:22;4.90;;;1.17;;
29500;SDS011;16450;50.288;10.966;2024-02-23T15:38:28;3.53;;;1.10;;
29500;SDS011;16450;50.288;10.966;2024-02-23T15:41:30;3.83;;;1.07;;
29500;SDS011;16450;50.288;10.966;2024-02-23T15:44:33;4.17;;;0.73;;
29500;SDS011;16450;50.288;10.966;2024-02-23T15:47:35;6.67;;;1.23;;
29500;SDS011;16450;50.288;10.966;2024-02-23T15:50:37;8.87;;;2.53;;
29500;SDS011;16450;50.288;10.966;2024-02-23T15:53:59;4.67;;;1.83;;
29500;SDS011;16450;50.288;10.966;2024-02-23T15:57:02;4.23;;;1.97;;
29500;SDS011;16450;50.288;10.966;2024-02-23T16:00:05;7.43;;;2.50;;
29500;SDS011;16450;50.288;10.966;2024-02-23T16:03:12;7.83;;;3.00;;
29500;SDS011;16450;50.288;10.966;2024-02-23T16:06:14;10.80;;;3.67;;
29500;SDS011;16450;50.288;10.966;2024-02-23T16:09:16;4.67;;;1.97;;
29500;SDS011;16450;50.288;10.966;2024-02-23T16:12:17;7.07;;;2.30;;
29500;SDS011;16450;50.288;10.966;2024-02-23T16:15:19;7.70;;;2.30;;
29500;SDS011;16450;50.288;10.966;2024-02-23T16:18:21;16.33;;;5.80;;
29500;SDS011;16450;50.288;10.966;2024-02-23T16:21:24;4.87;;;2.40;;
29500;SDS011;16450;50.288;10.966;2024-02-23T16:24:26;6.90;;;1.83;;
29500;SDS011;16450;50.288;10.966;2024-02-23T16:27:27;4.70;;;2.43;;
29500;SDS011;16450;50.288;10.966;2024-02-23T16:30:29;5.20;;;2.10;;
29500;SDS011;16450;50.288;10.966;2024-02-23T16:33:33;3.77;;;1.90;;
29500;SDS011;16450;50.288;10.966;2024-02-23T16:36:35;5.23;;;2.23;;
29500;SDS011;16450;50.288;10.966;2024-02-23T16:39:37;3.43;;;2.10;;
29500;SDS011;16450;50.288;10.966;2024-02-23T16:42:39;6.13;;;1.80;;
29500;SDS011;16450;50.288;10.966;2024-02-23T16:45:44;4.53;;;1.60;;
29500;SDS011;16450;50.288;10.966;2024-02-23T16:48:46;6.37;;;1.80;;
29500;SDS011;16450;50.288;10.966;2024-02-23T16:51:47;4.43;;;1.70;;
29500;SDS011;16450;50.288;10.966;2024-02-23T16:54:49;21.80;;;7.07;;
29500;SDS011;16450;50.288;10.966;2024-02-23T16:57:52;16.50;;;7.03;;
29500;SDS011;16450;50.288;10.966;2024-02-23T17:00:54;12.87;;;4.30;;
29500;SDS011;16450;50.288;10.966;2024-02-23T17:03:57;20.57;;;7.40;;
29500;SDS011;16450;50.288;10.966;2024-02-23T17:06:58;11.03;;;4.60;;
29500;SDS011;16450;50.288;10.966;2024-02-23T17:10:03;9.20;;;3.27;;
29500;SDS011;16450;50.288;10.966;2024-02-23T17:13:05;4.67;;;2.50;;
29500;SDS011;16450;50.288;10.966;2024-02-23T17:16:07;6.40;;;2.50;;
29500;SDS011;16450;50.288;10.966;2024-02-23T17:19:08;16.87;;;6.03;;
29500;SDS011;16450;50.288;10.966;2024-02-23T17:22:10;6.53;;;3.60;;
29500;SDS011;16450;50.288;10.966;2024-02-23T17:25:12;5.70;;;2.70;;
29500;SDS011;16450;50.288;10.966;2024-02-23T17:28:15;6.80;;;2.63;;
29500;SDS011;16450;50.288;10.966;2024-02-23T17:31:16;5.67;;;2.80;;
29500;SDS011;16450;50.288;10.966;2024-02-23T17:34:18;6.80;;;2.97;;
29500;SDS011;16450;50.288;10.966;2024-02-23T17:37:20;10.83;;;3.47;;
29500;SDS011;16450;50.288;10.966;2024-02-23T17:40:22;10.20;;;3.97;;
29500;SDS011;16450;50.288;10.966;2024-02-23T17:43:24;7.90;;;3.20;;
29500;SDS011;16450;50.288;10.966;2024-02-23T17:46:26;7.70;;;2.90;;
29500;SDS011;16450;50.288;10.966;2024-02-23T17:49:28;8.80;;;3.40;;
29500;SDS011;16450;50.288;10.966;2024-02-23T17:52:31;5.87;;;2.90;;
29500;SDS011;16450;50.288;10.966;2024-02-23T17:55:33;8.67;;;3.33;;
29500;SDS011;16450;50.288;10.966;2024-02-23T17:58:36;8.97;;;3.03;;
29500;SDS011;16450;50.288;10.966;2024-02-23T18:01:38;9.97;;;3.27;;
29500;SDS011;16450;50.288;10.966;2024-02-23T18:04:40;7.10;;;2.77;;